Time;durP1;ratioP1;P1;durP2;ratioP2;P2;SDS_P1;SDS_P2;PMS_P1;PMS_P2;Temp;Humidity;BMP_temperature;BMP_pressure;BME280_temperature;BME280_humidity;BME280_pressure;Samples;Min_cycle;Max_cycle;Signal;HPM_P1;HPM_P2
2021/12/13 00:01:34;;;;;;;2.87;2.03;;;4.40;99.90;4.20;101291.00;;;;5014604;27;96871;-68
2021/12/13 00:04:30;;;;;;;3.07;2.77;;;4.40;99.90;4.20;101288.00;;;;4975957;27;94398;-70
2021/12/13 00:07:06;;;;;;;4.07;2.63;;;4.50;99.90;4.20;101287.00;;;;4993411;28;93074;-69
2021/12/13 00:09:39;;;;;;;4.80;2.83;;;5.90;99.90;4.20;101300.00;;;;4975128;28;108236;-69
2021/12/13 00:12:06;;;;;;;3.47;2.30;;;4.50;99.90;4.20;101293.00;;;;4974869;28;98395;-70
2021/12/13 00:14:38;;;;;;;3.10;2.53;;;4.50;99.90;4.30;101303.00;;;;5012834;27;93217;-68
2021/12/13 00:17:18;;;;;;;4.53;2.97;;;4.50;99.90;4.30;101301.00;;;;5014243;27;107382;-69
2021/12/13 00:19:55;;;;;;;2.80;2.60;;;4.70;99.90;4.30;101296.00;;;;4994695;27;100144;-70
2021/12/13 00:22:37;;;;;;;2.73;2.40;;;4.50;99.90;4.30;101292.00;;;;4995861;27;92801;-68
2021/12/13 00:25:14;;;;;;;3.03;2.53;;;4.50;99.90;4.30;101305.00;;;;4995328;27;92760;-70
2021/12/13 00:27:47;;;;;;;4.07;2.90;;;4.50;99.90;4.30;101301.00;;;;4998029;27;93265;-69
2021/12/13 00:30:32;;;;;;;3.90;3.47;;;4.50;99.90;4.30;101299.00;;;;4975571;28;92879;-70
2021/12/13 00:33:26;;;;;;;4.03;3.13;;;4.50;99.90;4.30;101302.00;;;;4976284;28;92847;-70
2021/12/13 00:36:58;;;;;;;3.20;2.40;;;4.50;99.90;4.30;101302.00;;;;4959042;27;93193;-70
2021/12/13 00:39:54;;;;;;;4.83;3.43;;;4.60;99.90;4.30;101300.00;;;;4960082;28;110900;-70
2021/12/13 00:42:26;;;;;;;4.80;3.40;;;4.50;99.90;4.30;101288.00;;;;4987431;27;93688;-69
2021/12/13 00:45:06;;;;;;;5.10;3.87;;;4.50;99.90;4.30;101292.00;;;;4995015;27;92691;-69
2021/12/13 00:47:35;;;;;;;6.63;4.17;;;4.60;99.90;4.30;101284.00;;;;4994624;27;93089;-69
2021/12/13 00:50:16;;;;;;;4.27;3.40;;;4.60;99.90;4.30;101295.00;;;;5013148;27;109368;-70
2021/12/13 00:52:46;;;;;;;5.10;3.40;;;4.50;99.90;4.40;101287.00;;;;4993389;27;105095;-69
2021/12/13 00:55:23;;;;;;;5.53;4.10;;;4.50;99.90;4.40;101284.00;;;;4982635;27;92708;-69
2021/12/13 00:58:08;;;;;;;3.97;3.00;;;4.60;99.90;4.40;101292.00;;;;4975630;28;92239;-69
2021/12/13 01:00:48;;;;;;;4.07;3.33;;;4.60;99.90;4.40;101295.00;;;;4989393;27;93332;-70
2021/12/13 01:03:24;;;;;;;4.90;3.77;;;4.60;99.90;4.40;101301.00;;;;5012483;27;109744;-69
2021/12/13 01:06:31;;;;;;;3.43;2.93;;;4.60;99.90;4.40;101302.00;;;;5013667;27;93729;-68
2021/12/13 01:09:53;;;;;;;3.93;3.03;;;4.60;99.90;4.40;101295.00;;;;5014065;27;92835;-70
2021/12/13 01:12:23;;;;;;;4.30;3.27;;;4.60;99.90;4.40;101304.00;;;;4989748;27;108899;-70
2021/12/13 01:15:12;;;;;;;4.57;3.53;;;4.60;99.90;4.40;101302.00;;;;4995010;27;93169;-68
2021/12/13 01:21:16;;;;;;;3.60;2.73;;;4.70;99.90;4.40;101322.00;;;;4991025;28;92882;-70
2021/12/13 01:23:53;;;;;;;3.70;2.77;;;4.70;99.90;4.50;101311.00;;;;4975075;28;95984;-69
2021/12/13 01:26:29;;;;;;;3.73;3.13;;;4.60;99.90;4.50;101319.00;;;;4982416;27;94603;-69
2021/12/13 01:29:03;;;;;;;4.83;3.20;;;4.70;99.90;4.50;101322.00;;;;4996036;27;93113;-70
2021/12/13 01:31:45;;;;;;;4.77;3.00;;;4.70;99.90;4.50;101321.00;;;;5012775;27;92703;-68
2021/12/13 01:34:15;;;;;;;4.30;3.07;;;4.70;99.90;4.50;101332.00;;;;4973557;28;96585;-70
2021/12/13 01:37:09;;;;;;;4.63;3.50;;;4.70;99.90;4.50;101322.00;;;;4980008;27;93067;-69
2021/12/13 01:39:42;;;;;;;5.67;3.63;;;4.70;99.90;4.50;101333.00;;;;4997880;27;92978;-70
2021/12/13 01:42:17;;;;;;;3.63;2.73;;;4.70;99.90;4.50;101336.00;;;;5013316;27;92754;-70
2021/12/13 01:44:50;;;;;;;5.13;3.37;;;4.70;99.90;4.60;101333.00;;;;4977227;27;94703;-69
2021/12/13 01:47:27;;;;;;;4.33;3.20;;;4.80;99.90;4.60;101335.00;;;;4975399;28;92823;-69
2021/12/13 01:50:05;;;;;;;3.37;3.07;;;4.80;99.90;4.60;101344.00;;;;4992745;28;93005;-68
2021/12/13 01:52:35;;;;;;;6.17;3.70;;;4.80;99.90;4.60;101340.00;;;;4987123;27;92303;-69
2021/12/13 01:55:11;;;;;;;4.83;3.80;;;4.80;99.90;4.60;101341.00;;;;5012469;27;93802;-70
2021/12/13 01:57:47;;;;;;;3.93;3.30;;;4.70;99.90;4.60;101339.00;;;;4998868;28;92993;-68
2021/12/13 02:00:44;;;;;;;4.57;3.50;;;4.80;99.90;4.60;101341.00;;;;4992550;28;93763;-68
2021/12/13 02:03:11;;;;;;;4.60;3.70;;;4.80;99.90;4.60;101334.00;;;;4992845;27;93050;-68
2021/12/13 02:05:37;;;;;;;4.13;3.30;;;4.80;99.90;4.60;101344.00;;;;5012340;27;112711;-70
2021/12/13 02:08:16;;;;;;;6.83;4.00;;;4.80;99.90;4.60;101347.00;;;;4993065;27;103792;-69
2021/12/13 02:10:46;;;;;;;5.33;3.70;;;4.90;99.90;4.60;101342.00;;;;4993212;28;92654;-69
2021/12/13 02:13:22;;;;;;;5.40;3.93;;;4.80;99.90;4.60;101342.00;;;;4995432;27;95489;-68
2021/12/13 02:18:42;;;;;;;6.87;4.27;;;4.80;99.90;4.60;101347.00;;;;5019447;27;92352;-70
2021/12/13 02:21:22;;;;;;;6.40;4.53;;;4.80;99.90;4.60;101351.00;;;;5011798;27;95359;-70
2021/12/13 02:23:54;;;;;;;6.30;4.13;;;4.90;99.90;4.70;101345.00;;;;5011321;27;92716;-70
2021/12/13 02:26:21;;;;;;;7.37;5.10;;;4.80;99.90;4.70;101352.00;;;;5011148;27;111462;-70
2021/12/13 02:28:56;;;;;;;5.87;4.17;;;4.90;99.90;4.70;101352.00;;;;5012117;27;94607;-70
2021/12/13 02:31:30;;;;;;;4.73;4.23;;;4.80;99.90;4.70;101355.00;;;;4994173;27;93030;-70
2021/12/13 02:34:02;;;;;;;7.17;5.10;;;4.90;99.90;4.70;101349.00;;;;5012782;27;92914;-71
2021/12/13 02:36:35;;;;;;;6.83;5.57;;;4.90;99.90;4.70;101352.00;;;;4994498;27;93009;-70
2021/12/13 02:39:12;;;;;;;7.77;4.43;;;4.80;99.90;4.70;101350.00;;;;5004767;27;92949;-68
2021/12/13 02:41:39;;;;;;;6.10;4.50;;;4.90;99.90;4.70;101346.00;;;;5020450;27;95928;-69
2021/12/13 02:44:19;;;;;;;6.10;4.33;;;4.90;99.90;4.70;101359.00;;;;5036764;27;92099;-69
2021/12/13 02:46:46;;;;;;;6.23;4.10;;;4.90;99.90;4.70;101356.00;;;;5036178;27;93137;-69
2021/12/13 02:49:16;;;;;;;4.67;4.27;;;5.00;99.90;4.70;101363.00;;;;5018989;27;93707;-69
2021/12/13 02:51:54;;;;;;;7.67;5.43;;;4.90;99.90;4.70;101364.00;;;;5015534;27;93874;-70
2021/12/13 02:54:23;;;;;;;7.27;4.70;;;4.90;99.90;4.70;101365.00;;;;5016632;27;92752;-70
2021/12/13 02:57:00;;;;;;;5.07;3.70;;;4.90;99.90;4.70;101365.00;;;;5029278;27;92887;-69
2021/12/13 02:59:30;;;;;;;6.93;4.57;;;5.20;99.90;4.70;101347.00;;;;5036351;27;103368;-69
2021/12/13 03:02:20;;;;;;;6.97;5.17;;;5.00;99.90;4.70;101362.00;;;;5034223;27;95467;-68
2021/12/13 03:04:49;;;;;;;6.23;4.33;;;5.00;99.90;4.80;101356.00;;;;5000655;27;94655;-69
2021/12/13 03:07:31;;;;;;;5.30;4.40;;;5.00;99.90;4.70;101371.00;;;;5035304;27;94138;-71
2021/12/13 03:09:58;;;;;;;6.67;4.97;;;5.00;99.90;4.80;101367.00;;;;4990987;27;94807;-69
2021/12/13 03:12:27;;;;;;;7.17;5.00;;;4.90;99.90;4.80;101367.00;;;;5015499;27;92975;-70
2021/12/13 03:15:11;;;;;;;7.40;5.20;;;5.00;99.90;4.80;101365.00;;;;5015521;27;92822;-69
2021/12/13 03:17:48;;;;;;;7.10;4.73;;;4.90;99.90;4.80;101366.00;;;;4995816;27;109103;-69
2021/12/13 03:20:47;;;;;;;5.13;4.10;;;5.00;99.90;4.70;101366.00;;;;4996778;27;92942;-69
2021/12/13 03:23:31;;;;;;;6.83;5.30;;;5.00;99.90;4.80;101362.00;;;;4996968;27;95660;-68
2021/12/13 03:26:35;;;;;;;5.63;4.90;;;5.10;99.90;4.80;101358.00;;;;5002277;27;92668;-68
2021/12/13 03:29:11;;;;;;;5.83;3.87;;;5.00;99.90;4.80;101363.00;;;;5016184;27;110822;-69
2021/12/13 03:31:57;;;;;;;6.27;5.17;;;5.00;99.90;4.80;101360.00;;;;5016874;27;95352;-69
2021/12/13 03:34:32;;;;;;;6.37;4.17;;;5.00;99.90;4.90;101361.00;;;;5036296;27;93111;-69
2021/12/13 03:37:12;;;;;;;6.03;4.53;;;5.00;99.90;4.90;101360.00;;;;5008856;27;97262;-68
2021/12/13 03:39:47;;;;;;;7.80;5.33;;;5.10;99.90;4.90;101363.00;;;;5035176;27;108322;-69
2021/12/13 03:42:43;;;;;;;6.93;4.57;;;5.00;99.90;4.80;101366.00;;;;4998545;27;111041;-69
2021/12/13 03:45:46;;;;;;;4.33;3.93;;;5.10;99.90;4.80;101360.00;;;;5035068;27;94811;-69
2021/12/13 03:48:17;;;;;;;8.43;4.40;;;5.00;99.90;4.80;101375.00;;;;5001298;27;93292;-68
2021/12/13 03:50:49;;;;;;;6.80;4.97;;;5.10;99.90;4.80;101377.00;;;;5015214;27;93673;-69
2021/12/13 03:53:20;;;;;;;10.13;4.10;;;5.00;99.90;4.80;101379.00;;;;5014101;27;98087;-70
2021/12/13 03:55:50;;;;;;;7.73;5.10;;;5.10;99.90;4.80;101371.00;;;;4995599;27;99443;-69
2021/12/13 03:58:21;;;;;;;8.00;4.97;;;5.00;99.90;4.90;101380.00;;;;5028686;27;92733;-69
2021/12/13 04:01:09;;;;;;;6.17;4.83;;;4.70;99.90;4.90;101383.00;;;;5027164;27;93605;-69
2021/12/13 04:03:36;;;;;;;6.03;4.67;;;5.00;99.90;4.90;101392.00;;;;5035154;27;92995;-70
2021/12/13 04:06:04;;;;;;;8.07;5.50;;;5.10;99.90;4.90;101389.00;;;;5024724;27;93816;-69
2021/12/13 04:08:31;;;;;;;6.50;5.30;;;5.10;99.90;4.90;101390.00;;;;5014609;27;93975;-69
2021/12/13 04:11:05;;;;;;;5.87;4.57;;;5.10;99.90;4.90;101387.00;;;;5014269;27;94600;-69
2021/12/13 04:13:37;;;;;;;7.30;5.40;;;5.10;99.90;4.90;101389.00;;;;5014927;27;94136;-69
2021/12/13 04:16:16;;;;;;;5.70;4.17;;;5.10;99.90;4.90;101390.00;;;;5014368;27;93013;-68
2021/12/13 04:21:36;;;;;;;9.20;5.30;;;5.10;99.90;4.90;101383.00;;;;5013604;27;92882;-68
2021/12/13 04:24:06;;;;;;;6.90;4.60;;;5.10;99.90;5.00;101393.00;;;;5014939;27;92632;-70
2021/12/13 04:26:41;;;;;;;7.63;5.50;;;5.10;99.90;4.90;101391.00;;;;5015134;27;92879;-69
2021/12/13 04:29:16;;;;;;;7.57;5.07;;;5.10;99.90;4.90;101397.00;;;;4996401;27;91976;-68
2021/12/13 04:31:43;;;;;;;7.23;5.50;;;5.10;99.90;4.90;101400.00;;;;4985451;27;104874;-69
2021/12/13 04:34:09;;;;;;;6.67;5.10;;;5.20;99.90;4.90;101402.00;;;;5032863;27;93693;-70
2021/12/13 04:36:43;;;;;;;9.77;5.80;;;5.20;99.90;4.90;101395.00;;;;5033169;27;94033;-69
2021/12/13 04:39:34;;;;;;;9.03;5.27;;;5.20;99.90;4.90;101403.00;;;;5028350;27;92759;-69
2021/12/13 04:42:09;;;;;;;8.60;5.40;;;5.10;99.90;4.90;101405.00;;;;4994685;27;107670;-69
2021/12/13 04:44:50;;;;;;;6.30;4.43;;;5.10;99.90;4.90;101413.00;;;;4996210;27;92687;-69
2021/12/13 04:47:40;;;;;;;9.37;5.23;;;5.10;99.90;4.90;101408.00;;;;4995944;27;92959;-69
2021/12/13 04:50:11;;;;;;;11.80;5.87;;;5.10;99.90;4.90;101402.00;;;;5014907;27;92607;-69
2021/12/13 04:52:38;;;;;;;7.53;4.97;;;5.10;99.90;4.90;101409.00;;;;5014276;27;93088;-70
2021/12/13 04:55:12;;;;;;;6.93;5.17;;;5.10;99.90;4.80;101423.00;;;;4993051;27;92483;-70
2021/12/13 04:57:39;;;;;;;6.43;4.80;;;5.10;99.90;4.90;101405.00;;;;5014085;27;92831;-70
2021/12/13 05:00:15;;;;;;;7.23;4.73;;;5.10;99.90;4.90;101419.00;;;;5013999;27;92688;-70
2021/12/13 05:02:49;;;;;;;9.20;5.63;;;5.10;99.90;4.90;101408.00;;;;5015176;27;94806;-70
2021/12/13 05:05:17;;;;;;;6.97;5.00;;;5.10;99.90;4.90;101417.00;;;;5011992;27;108025;-70
2021/12/13 05:07:46;;;;;;;5.00;4.20;;;5.10;99.90;4.90;101413.00;;;;5013948;27;92876;-70
2021/12/13 05:10:14;;;;;;;6.87;4.50;;;5.10;99.90;4.90;101412.00;;;;5013905;27;92784;-70
2021/12/13 05:12:41;;;;;;;7.03;4.20;;;5.10;99.90;4.90;101417.00;;;;5013497;27;107794;-70
2021/12/13 05:15:12;;;;;;;6.93;4.87;;;5.10;99.90;4.90;101408.00;;;;5013706;27;96197;-70
2021/12/13 05:17:44;;;;;;;8.30;5.13;;;5.10;99.90;4.90;101409.00;;;;4995348;27;92744;-70
2021/12/13 05:20:39;;;;;;;6.97;4.50;;;5.00;99.90;4.90;101427.00;;;;5013522;27;95844;-70
2021/12/13 05:23:10;;;;;;;7.43;4.53;;;5.10;99.90;4.90;101422.00;;;;4997374;27;92941;-70
2021/12/13 05:25:51;;;;;;;5.20;3.53;;;5.30;99.90;4.90;101431.00;;;;5026836;27;92972;-70
2021/12/13 05:28:39;;;;;;;6.23;4.10;;;5.50;99.90;4.90;101433.00;;;;4994702;27;93926;-70
2021/12/13 05:31:19;;;;;;;5.17;3.53;;;5.10;99.90;4.90;101429.00;;;;5015337;27;96351;-70
2021/12/13 05:33:52;;;;;;;5.93;4.10;;;5.10;99.90;5.00;101442.00;;;;5033770;27;106885;-70
2021/12/13 05:36:24;;;;;;;6.00;4.07;;;5.90;99.90;5.00;101434.00;;;;5033074;27;93016;-71
2021/12/13 05:39:04;;;;;;;6.83;4.37;;;5.10;99.90;5.00;101440.00;;;;5033821;27;92721;-71
2021/12/13 05:41:30;;;;;;;4.90;3.87;;;5.20;99.90;5.00;101433.00;;;;5014457;27;92918;-71
2021/12/13 05:44:05;;;;;;;6.23;4.10;;;5.20;99.90;5.10;101452.00;;;;5032537;27;112631;-71
2021/12/13 05:46:45;;;;;;;6.57;4.67;;;5.20;99.90;5.10;101442.00;;;;5019367;27;93228;-70
2021/12/13 05:49:34;;;;;;;9.27;4.17;;;5.30;99.90;5.10;101454.00;;;;4978844;27;93066;-70
2021/12/13 05:52:18;;;;;;;6.17;4.03;;;5.30;99.90;5.10;101449.00;;;;5009306;27;92897;-70
2021/12/13 05:54:58;;;;;;;5.37;4.13;;;5.30;99.90;5.10;101458.00;;;;5012525;27;94652;-72
2021/12/13 05:57:30;;;;;;;5.50;3.87;;;5.40;99.90;5.10;101465.00;;;;5018378;27;93053;-71
2021/12/13 06:00:11;;;;;;;6.73;4.00;;;5.30;99.90;5.10;101454.00;;;;4996741;27;92934;-71
2021/12/13 06:03:07;;;;;;;6.00;3.73;;;5.30;99.90;5.00;101454.00;;;;5016752;27;92652;-72
2021/12/13 06:05:52;;;;;;;9.40;5.17;;;5.30;99.90;5.00;101455.00;;;;4993972;27;93181;-71
2021/12/13 06:08:26;;;;;;;8.57;5.00;;;5.20;99.90;5.00;101458.00;;;;4977146;27;94421;-72
2021/12/13 06:11:03;;;;;;;6.77;4.43;;;5.20;99.90;5.00;101456.00;;;;5004671;27;92901;-72
2021/12/13 06:14:05;;;;;;;6.00;4.07;;;5.20;99.90;4.90;101472.00;;;;5003087;27;91975;-71
2021/12/13 06:17:04;;;;;;;6.00;3.93;;;5.20;99.90;4.90;101454.00;;;;4977508;27;102038;-71
2021/12/13 06:19:48;;;;;;;5.27;3.97;;;5.10;99.90;4.90;101458.00;;;;5012636;27;92792;-71
2021/12/13 06:22:21;;;;;;;5.67;3.67;;;5.20;99.90;4.90;101457.00;;;;4993614;27;93803;-71
2021/12/13 06:25:06;;;;;;;5.67;3.77;;;5.10;99.90;4.90;101457.00;;;;5013280;27;92746;-71
2021/12/13 06:27:45;;;;;;;4.60;3.90;;;5.10;99.90;4.90;101472.00;;;;4994006;27;93704;-71
2021/12/13 06:30:27;;;;;;;6.77;3.33;;;5.00;99.90;4.90;101467.00;;;;4994012;27;93032;-70
2021/12/13 06:32:57;;;;;;;4.40;3.47;;;5.10;99.90;4.90;101462.00;;;;5016070;27;97244;-70
2021/12/13 06:35:48;;;;;;;5.23;3.47;;;5.30;99.90;4.90;101468.00;;;;5012466;27;93006;-71
2021/12/13 06:38:19;;;;;;;7.00;5.10;;;5.10;99.90;5.00;101487.00;;;;4992808;27;95168;-70
2021/12/13 06:41:05;;;;;;;5.47;3.73;;;5.10;99.90;5.00;101469.00;;;;5005268;27;94885;-70
2021/12/13 06:43:48;;;;;;;7.23;4.40;;;5.20;99.90;5.00;101467.00;;;;5013202;27;92970;-70
2021/12/13 06:46:23;;;;;;;11.40;5.83;;;5.20;99.90;4.90;101465.00;;;;4990617;27;93440;-70
2021/12/13 06:49:00;;;;;;;9.33;5.50;;;5.20;99.90;4.90;101470.00;;;;5008484;27;95094;-70
2021/12/13 06:51:56;;;;;;;10.13;5.90;;;5.10;99.90;4.90;101468.00;;;;4990910;27;93247;-71
2021/12/13 06:54:25;;;;;;;7.70;5.30;;;5.10;99.90;5.00;101475.00;;;;5016482;27;92946;-71
2021/12/13 06:57:06;;;;;;;5.33;3.87;;;5.20;99.90;4.90;101477.00;;;;5021524;27;100317;-71
2021/12/13 06:59:39;;;;;;;9.10;4.13;;;5.20;99.90;5.00;101479.00;;;;4984558;27;95431;-71
2021/12/13 07:02:09;;;;;;;8.53;5.13;;;5.20;99.90;5.00;101490.00;;;;4990853;27;109884;-71
2021/12/13 07:04:54;;;;;;;9.23;4.87;;;5.30;99.90;5.00;101493.00;;;;5020646;27;92852;-71
2021/12/13 07:07:29;;;;;;;9.57;4.73;;;5.20;99.90;5.10;101494.00;;;;5016009;27;92332;-71
2021/12/13 07:10:00;;;;;;;7.60;5.13;;;5.20;99.90;5.10;101496.00;;;;5020301;27;106593;-71
2021/12/13 07:12:31;;;;;;;3.93;3.47;;;5.20;99.90;5.10;101494.00;;;;5009878;27;93008;-71
2021/12/13 07:14:59;;;;;;;7.77;4.60;;;5.30;99.90;5.10;101494.00;;;;5009644;27;94059;-71
2021/12/13 07:17:33;;;;;;;8.30;4.70;;;5.40;99.90;5.20;101506.00;;;;5015744;27;92737;-71
2021/12/13 07:20:15;;;;;;;4.53;3.77;;;5.40;99.90;5.20;101503.00;;;;5008555;27;94187;-73
2021/12/13 07:22:42;;;;;;;5.03;3.73;;;5.40;99.90;5.20;101504.00;;;;5011219;27;92757;-73
2021/12/13 07:25:15;;;;;;;5.87;3.63;;;5.40;99.90;5.20;101509.00;;;;5008395;27;92982;-73
2021/12/13 07:27:49;;;;;;;5.47;3.00;;;5.40;99.90;5.20;101508.00;;;;5015465;27;92903;-73
2021/12/13 07:30:23;;;;;;;5.67;3.70;;;5.40;99.90;5.30;101508.00;;;;5012929;27;93572;-73
2021/12/13 07:33:08;;;;;;;7.70;3.73;;;5.30;99.90;5.30;101510.00;;;;4986630;27;94881;-74
2021/12/13 07:35:49;;;;;;;7.17;4.53;;;5.40;99.90;5.30;101503.00;;;;5000253;27;93163;-72
2021/12/13 07:38:17;;;;;;;5.93;3.83;;;5.50;99.90;5.30;101513.00;;;;4997565;27;108082;-72
2021/12/13 07:40:55;;;;;;;5.13;3.27;;;5.50;99.90;5.30;101512.00;;;;5010848;27;109282;-72
2021/12/13 07:43:38;;;;;;;4.30;3.27;;;5.40;99.90;5.30;101521.00;;;;4994084;27;94069;-73
2021/12/13 07:46:19;;;;;;;8.73;3.80;;;5.50;99.90;5.30;101520.00;;;;4993574;27;93053;-72
2021/12/13 07:48:45;;;;;;;7.00;3.87;;;5.50;99.90;5.30;101517.00;;;;5003421;27;93459;-72
2021/12/13 07:51:33;;;;;;;5.90;4.17;;;5.50;99.90;5.40;101521.00;;;;5015401;27;93676;-72
2021/12/13 07:53:59;;;;;;;8.20;3.90;;;5.50;99.90;5.40;101528.00;;;;4994679;27;93215;-72
2021/12/13 07:56:27;;;;;;;8.20;4.10;;;5.60;99.90;5.40;101531.00;;;;5013153;27;93226;-72
2021/12/13 07:59:05;;;;;;;6.70;4.83;;;5.60;99.90;5.40;101530.00;;;;5015053;27;92205;-72
2021/12/13 08:01:42;;;;;;;5.53;4.07;;;6.10;99.90;5.40;101534.00;;;;5016755;27;93004;-72
2021/12/13 08:04:37;;;;;;;4.67;3.13;;;5.60;99.90;5.50;101545.00;;;;5011753;27;93081;-71
2021/12/13 08:07:09;;;;;;;6.40;3.80;;;5.70;99.90;5.50;101540.00;;;;4968470;27;94087;-71
2021/12/13 08:09:50;;;;;;;4.50;3.20;;;5.70;99.90;5.50;101548.00;;;;5011546;27;93771;-72
2021/12/13 08:12:28;;;;;;;8.90;4.97;;;5.70;99.90;5.50;101538.00;;;;5010389;27;105261;-72
2021/12/13 08:15:28;;;;;;;6.07;3.83;;;5.70;99.90;5.50;101550.00;;;;5010815;27;93603;-72
2021/12/13 08:18:02;;;;;;;5.87;3.63;;;5.70;99.90;5.60;101553.00;;;;5011419;27;92707;-71
2021/12/13 08:21:08;;;;;;;7.70;4.00;;;5.80;99.90;5.60;101562.00;;;;5011466;27;92588;-72
2021/12/13 08:23:44;;;;;;;5.80;4.00;;;5.70;99.90;5.60;101555.00;;;;4994669;27;95413;-72
2021/12/13 08:26:17;;;;;;;6.47;4.00;;;5.80;99.90;5.60;101563.00;;;;5017106;27;93294;-72
2021/12/13 08:28:48;;;;;;;6.77;4.40;;;5.80;99.90;5.60;101560.00;;;;5011148;27;93441;-72
2021/12/13 08:31:33;;;;;;;9.17;5.27;;;5.80;99.90;5.60;101558.00;;;;5011767;27;93176;-72
2021/12/13 08:34:07;;;;;;;6.50;3.87;;;5.80;99.90;5.60;101566.00;;;;5009918;27;93977;-72
2021/12/13 08:36:44;;;;;;;6.27;4.63;;;5.80;99.90;5.60;101564.00;;;;4992178;27;106932;-72
2021/12/13 08:39:14;;;;;;;6.13;3.17;;;5.80;99.90;5.60;101574.00;;;;4992343;27;92984;-70
2021/12/13 08:41:53;;;;;;;4.27;3.53;;;5.80;99.90;5.60;101580.00;;;;5013333;27;97484;-71
2021/12/13 08:44:37;;;;;;;5.10;3.37;;;5.70;99.90;5.60;101578.00;;;;5009755;27;107439;-71
2021/12/13 08:47:10;;;;;;;5.47;3.53;;;5.80;99.90;5.60;101584.00;;;;5011624;27;92782;-71
2021/12/13 08:49:47;;;;;;;5.43;2.83;;;5.70;99.90;5.60;101582.00;;;;5011001;27;93115;-71
2021/12/13 08:52:21;;;;;;;6.13;4.40;;;5.80;99.90;5.60;101579.00;;;;5011010;27;92778;-70
2021/12/13 08:55:05;;;;;;;5.37;3.17;;;5.70;99.90;5.60;101585.00;;;;5010450;27;99014;-70
2021/12/13 08:57:46;;;;;;;5.10;3.80;;;5.70;99.90;5.60;101587.00;;;;4997124;27;103706;-71
2021/12/13 09:00:11;;;;;;;6.77;3.33;;;5.80;99.90;5.60;101594.00;;;;5024706;27;93995;-71
2021/12/13 09:02:42;;;;;;;6.13;3.93;;;5.80;99.90;5.60;101600.00;;;;5016276;27;97523;-70
2021/12/13 09:05:16;;;;;;;9.57;4.60;;;5.70;99.90;5.60;101600.00;;;;5009754;27;108865;-70
2021/12/13 09:08:14;;;;;;;6.23;4.13;;;5.80;99.90;5.60;101599.00;;;;5017770;27;105710;-70
2021/12/13 09:10:51;;;;;;;6.20;4.50;;;5.80;99.90;5.70;101604.00;;;;4997154;27;97729;-70
2021/12/13 09:13:35;;;;;;;5.00;3.73;;;5.80;99.90;5.70;101599.00;;;;5010957;27;92731;-70
2021/12/13 09:16:01;;;;;;;8.87;4.43;;;5.80;99.90;5.70;101596.00;;;;4991870;27;93739;-70
2021/12/13 09:18:27;;;;;;;6.60;4.00;;;5.80;99.90;5.70;101592.00;;;;5011298;27;102579;-70
2021/12/13 09:20:56;;;;;;;4.53;3.73;;;5.80;99.90;5.70;101589.00;;;;5010049;27;107257;-71
2021/12/13 09:23:29;;;;;;;7.77;6.20;;;5.80;99.90;5.70;101589.00;;;;5023358;27;92803;-72
2021/12/13 09:26:14;;;;;;;6.17;4.43;;;5.30;99.90;5.70;101591.00;;;;5010711;27;94794;-72
2021/12/13 09:28:51;;;;;;;10.43;7.07;;;6.00;99.90;5.80;101593.00;;;;5019787;27;94501;-72
2021/12/13 09:31:49;;;;;;;10.13;7.30;;;5.90;99.90;5.80;101584.00;;;;4999514;27;92930;-71
2021/12/13 09:34:20;;;;;;;7.77;4.93;;;6.00;99.90;5.90;101582.00;;;;4979208;27;108671;-71
2021/12/13 09:36:52;;;;;;;6.17;3.93;;;6.00;99.90;6.00;101585.00;;;;4991013;27;109975;-72
2021/12/13 09:39:26;;;;;;;7.13;4.03;;;6.10;99.90;6.00;101579.00;;;;4990697;27;112134;-71
2021/12/13 09:42:13;;;;;;;4.90;3.53;;;6.20;99.90;6.10;101576.00;;;;4992024;27;92884;-71
2021/12/13 09:44:48;;;;;;;5.13;3.70;;;6.20;99.90;6.20;101583.00;;;;4993075;27;92068;-72
2021/12/13 09:47:20;;;;;;;5.30;3.83;;;6.20;99.90;6.20;101578.00;;;;5005835;27;93109;-71
2021/12/13 09:50:06;;;;;;;5.10;4.60;;;6.40;99.90;6.30;101587.00;;;;5009831;27;92937;-72
2021/12/13 09:52:42;;;;;;;5.73;4.20;;;6.40;99.90;6.40;101585.00;;;;5003056;27;93798;-71
2021/12/13 09:55:28;;;;;;;6.50;3.97;;;6.50;99.90;6.40;101589.00;;;;4998823;27;93039;-72
2021/12/13 09:58:09;;;;;;;6.50;4.80;;;6.50;99.90;6.40;101586.00;;;;5009720;27;93456;-72
2021/12/13 10:00:45;;;;;;;4.93;4.00;;;6.60;99.90;6.50;101584.00;;;;4990894;27;103853;-72
2021/12/13 10:03:20;;;;;;;4.73;3.67;;;6.60;99.90;6.50;101580.00;;;;4991574;27;92883;-72
2021/12/13 10:05:53;;;;;;;6.93;4.33;;;6.70;99.90;6.60;101586.00;;;;4995859;27;92869;-72
2021/12/13 10:08:28;;;;;;;5.73;4.10;;;6.70;99.90;6.60;101582.00;;;;4973976;27;95256;-72
2021/12/13 10:11:07;;;;;;;6.37;4.27;;;6.80;99.90;6.70;101589.00;;;;5011062;27;92904;-72
2021/12/13 10:13:37;;;;;;;13.97;6.07;;;6.80;99.90;6.70;101585.00;;;;5015720;27;95984;-72
2021/12/13 10:16:13;;;;;;;5.20;3.07;;;6.80;99.90;6.70;101576.00;;;;5010156;27;92794;-73
2021/12/13 10:18:43;;;;;;;3.37;2.73;;;6.90;99.90;6.80;101575.00;;;;4991447;27;94054;-72
2021/12/13 10:21:15;;;;;;;5.37;3.80;;;6.90;99.90;6.80;101580.00;;;;4123236;27;10000449;-72
2021/12/13 10:23:49;;;;;;;6.83;3.83;;;6.90;99.90;6.80;101582.00;;;;5008658;27;94402;-72
2021/12/13 10:26:17;;;;;;;5.43;3.63;;;6.90;99.90;6.90;101568.00;;;;4991044;27;93463;-74
2021/12/13 10:28:58;;;;;;;4.57;4.00;;;7.00;99.90;6.90;101579.00;;;;5008375;27;95801;-73
2021/12/13 10:31:35;;;;;;;4.60;3.30;;;7.10;99.90;6.90;101578.00;;;;5012633;27;92862;-72
2021/12/13 10:34:11;;;;;;;4.60;3.57;;;7.10;99.90;7.00;101574.00;;;;4991309;27;94940;-73
2021/12/13 10:36:41;;;;;;;4.47;3.17;;;7.10;99.90;7.00;101579.00;;;;5016175;27;92388;-73
2021/12/13 10:39:16;;;;;;;5.20;3.47;;;7.10;99.90;7.00;101577.00;;;;5009307;27;93079;-72
2021/12/13 10:41:48;;;;;;;16.30;4.90;;;7.10;99.90;7.00;101584.00;;;;4994579;27;93267;-72
2021/12/13 10:44:26;;;;;;;3.90;3.50;;;7.10;99.90;7.10;101575.00;;;;5008473;27;94848;-71
2021/12/13 10:46:59;;;;;;;4.80;3.67;;;7.20;99.90;7.10;101579.00;;;;5015752;27;94558;-71
2021/12/13 10:49:29;;;;;;;5.73;3.73;;;7.20;99.90;7.10;101577.00;;;;5009486;27;92677;-71
2021/12/13 10:52:07;;;;;;;4.20;3.17;;;8.10;99.90;7.10;101571.00;;;;5016066;27;93053;-69
2021/12/13 10:54:46;;;;;;;6.20;4.20;;;7.30;99.90;7.10;101569.00;;;;5024103;27;93774;-69
2021/12/13 10:57:23;;;;;;;14.47;5.47;;;7.30;99.90;7.10;101573.00;;;;5000182;27;92740;-69
2021/12/13 10:59:49;;;;;;;5.97;3.80;;;7.30;99.90;7.20;101566.00;;;;5020906;27;94950;-68
2021/12/13 11:02:23;;;;;;;5.10;3.50;;;7.30;99.90;7.20;101569.00;;;;5019079;27;92188;-68
2021/12/13 11:04:58;;;;;;;6.37;3.87;;;7.30;99.90;7.20;101566.00;;;;5012376;27;92917;-70
2021/12/13 11:07:27;;;;;;;7.20;3.93;;;7.40;99.90;7.20;101568.00;;;;5019998;27;93143;-68
2021/12/13 11:09:57;;;;;;;5.47;4.27;;;7.30;99.90;7.20;101565.00;;;;5012098;27;93890;-70
2021/12/13 11:12:32;;;;;;;6.20;3.80;;;7.30;99.90;7.20;101559.00;;;;5017470;27;93152;-70
2021/12/13 11:15:04;;;;;;;4.43;4.00;;;7.40;99.90;7.20;101573.00;;;;4998616;27;94998;-69
2021/12/13 11:17:34;;;;;;;7.33;4.53;;;7.30;99.90;7.20;101560.00;;;;4993553;27;104675;-70
2021/12/13 11:20:22;;;;;;;6.03;3.57;;;7.40;99.90;7.20;101560.00;;;;5011728;27;96945;-70
2021/12/13 11:22:48;;;;;;;6.03;4.50;;;7.40;99.90;7.20;101564.00;;;;5012504;27;96118;-70
2021/12/13 11:25:25;;;;;;;7.83;4.83;;;7.40;99.90;7.30;101561.00;;;;5014425;27;96740;-70
2021/12/13 11:27:51;;;;;;;3.47;3.17;;;7.40;99.90;7.30;101560.00;;;;5011988;27;105860;-70
2021/12/13 11:30:23;;;;;;;4.07;3.60;;;7.40;99.90;7.30;101561.00;;;;5016380;27;92838;-70
2021/12/13 11:32:58;;;;;;;7.20;4.37;;;7.50;99.90;7.30;101553.00;;;;4993172;27;93626;-69
2021/12/13 11:36:07;;;;;;;5.27;3.70;;;7.50;99.90;7.30;101569.00;;;;5018342;27;93917;-69
2021/12/13 11:38:58;;;;;;;6.37;4.47;;;7.50;99.90;7.30;101563.00;;;;5012036;27;92909;-69
2021/12/13 11:41:57;;;;;;;5.10;3.63;;;7.50;99.90;7.40;101559.00;;;;5013002;27;92771;-68
2021/12/13 11:44:53;;;;;;;7.80;4.40;;;7.50;99.90;7.40;101555.00;;;;4993894;27;92893;-69
2021/12/13 11:47:40;;;;;;;7.23;4.43;;;7.60;99.90;7.40;101562.00;;;;5006988;27;92911;-69
2021/12/13 11:50:30;;;;;;;5.83;4.33;;;7.60;99.90;7.50;101556.00;;;;4996607;27;94289;-69
2021/12/13 11:53:46;;;;;;;4.93;3.10;;;7.60;99.90;7.50;101550.00;;;;5015871;27;92739;-70
2021/12/13 11:57:04;;;;;;;7.83;4.00;;;7.60;99.90;7.60;101559.00;;;;5012622;27;92293;-70